Terminal Aerodrome Forecast
Issued by NWS Caribou, ME

Home | Current Version | Previous Version | Text Only | Print | Product List | Glossary On
Versions: 1 2 3 4 5 6 7 8 9 10 11 12 13 14 15 16 17 18 19 20 21
000
FTUS41 KCAR 271730
TAFBGR
TAF
KBGR 271730Z 2718/2818 03032G42KT 1/4SM SN BLSN OVC008
     FM280000 35023G33KT 3SM -SN BLSN OVC008
     FM281000 34015G22KT P6SM VCSH BKN020=

USA.gov is the U.S. government's official web portal to all federal, state and local government web resources and services.